Time;durP1;ratioP1;P1;durP2;ratioP2;P2;SDS_P1;SDS_P2;PMS_P1;PMS_P2;Temp;Humidity;BMP_temperature;BMP_pressure;BME280_temperature;BME280_humidity;BME280_pressure;Samples;Min_cycle;Max_cycle;Signal;HPM_P1;HPM_P2
2021/12/30 00:02:44;;;;;;;1.37;1.33;;;;;;;21.08;46.15;99674.92;1858299;76;28112;-62
2021/12/30 00:05:35;;;;;;;2.30;1.20;;;;;;;21.04;46.19;99678.28;1860312;76;28236;-62
2021/12/30 00:08:24;;;;;;;1.37;1.27;;;;;;;21.05;46.21;99682.73;1841935;76;28134;-63
2021/12/30 00:11:12;;;;;;;1.20;1.20;;;;;;;21.05;46.11;99689.00;1849178;76;28256;-62
2021/12/30 00:14:00;;;;;;;1.72;1.20;;;;;;;21.06;46.10;99687.96;1839042;76;28927;-62
2021/12/30 00:16:49;;;;;;;1.70;1.20;;;;;;;21.06;46.13;99687.96;1851630;76;28193;-62
2021/12/30 00:19:38;;;;;;;1.32;1.10;;;;;;;21.07;46.08;99687.44;1856952;76;28237;-63
2021/12/30 00:22:28;;;;;;;1.77;1.20;;;;;;;21.06;46.06;99692.58;1851403;76;28164;-63
2021/12/30 00:25:17;;;;;;;1.27;1.17;;;;;;;21.05;46.11;99687.64;1862936;76;28168;-63
2021/12/30 00:28:08;;;;;;;1.90;1.30;;;;;;;21.07;46.09;99686.08;1861157;76;28167;-63
2021/12/30 00:30:56;;;;;;;1.40;1.17;;;;;;;21.09;46.02;99680.70;1857019;76;28252;-63
2021/12/30 00:33:45;;;;;;;1.37;1.15;;;;;;;21.11;45.97;99676.38;1851088;76;28112;-64
2021/12/30 00:36:34;;;;;;;1.17;1.17;;;;;;;21.09;45.98;99667.57;1842863;76;28111;-63
2021/12/30 00:39:22;;;;;;;1.15;1.15;;;;;;;21.10;45.99;99667.86;1844537;76;28338;-62
2021/12/30 00:42:11;;;;;;;1.15;1.15;;;;;;;21.09;45.98;99664.31;1849368;76;28263;-63
2021/12/30 00:44:59;;;;;;;1.65;1.25;;;;;;;21.10;45.96;99669.22;1848848;76;28286;-63
2021/12/30 00:47:47;;;;;;;1.30;1.30;;;;;;;21.11;45.88;99676.38;1847403;76;28148;-62
2021/12/30 00:50:38;;;;;;;1.25;1.15;;;;;;;21.09;45.86;99668.94;1856412;76;28289;-62
2021/12/30 00:53:26;;;;;;;1.15;1.12;;;;;;;21.10;45.91;99670.07;1845174;76;28235;-61
2021/12/30 00:56:15;;;;;;;1.10;1.10;;;;;;;21.10;45.86;99661.03;1856207;75;28202;-63
2021/12/30 06:08:42;;;;;;;2.80;2.17;;;;;;;16.71;57.07;99828.70;1932150;72;27983;-61
2021/12/30 06:11:31;;;;;;;1.50;1.40;;;;;;;17.00;56.78;99830.84;1902869;73;28128;-62
2021/12/30 06:14:21;;;;;;;1.35;1.27;;;;;;;17.80;55.50;99834.27;1924628;73;28133;-62
2021/12/30 06:17:13;;;;;;;1.30;1.20;;;;;;;18.46;54.03;99837.00;1903989;73;28595;-62
2021/12/30 06:19:59;;;;;;;1.00;1.00;;;;;;;18.99;52.76;99839.51;1904911;73;28070;-62
2021/12/30 06:22:49;;;;;;;1.30;1.30;;;;;;;19.41;51.58;99840.31;1907665;73;39047;-65
2021/12/30 06:25:37;;;;;;;1.50;1.10;;;;;;;19.75;50.53;99840.16;1917974;73;28105;-65
2021/12/30 06:28:27;;;;;;;1.25;1.05;;;;;;;20.03;49.60;99834.00;1898924;73;28085;-62
2021/12/30 06:31:16;;;;;;;1.27;1.20;;;;;;;20.26;48.89;99828.14;1902056;75;28150;-63
2021/12/30 06:34:04;;;;;;;1.05;1.05;;;;;;;20.40;48.27;99826.56;1924069;73;28180;-62
2021/12/30 06:36:54;;;;;;;1.05;1.05;;;;;;;20.56;47.73;99829.39;1921497;73;28094;-62
2021/12/30 06:39:44;;;;;;;1.22;1.00;;;;;;;20.72;47.34;99845.83;1906168;73;28183;-63
2021/12/30 06:42:32;;;;;;;1.07;1.07;;;;;;;20.79;46.93;99844.77;1903615;73;28195;-62
2021/12/30 06:45:20;;;;;;;1.15;1.15;;;;;;;20.89;46.61;99849.23;1921151;73;28080;-62
2021/12/30 06:48:13;;;;;;;0.95;0.95;;;;;;;20.96;46.35;99842.38;1902708;73;28124;-63
2021/12/30 06:51:00;;;;;;;1.10;1.10;;;;;;;21.00;46.04;99850.47;1911828;73;28249;-63
2021/12/30 06:53:48;;;;;;;1.00;1.00;;;;;;;21.07;45.83;99849.95;1902411;73;28073;-63
2021/12/30 06:56:39;;;;;;;1.02;1.02;;;;;;;21.08;45.69;99848.87;1906236;73;28177;-63
2021/12/30 06:59:28;;;;;;;0.90;0.90;;;;;;;21.14;45.57;99852.12;1916356;73;28087;-63
2021/12/30 07:02:17;;;;;;;1.10;1.10;;;;;;;21.18;45.39;99856.09;1911721;73;27988;-64
2021/12/30 07:05:07;;;;;;;1.12;1.10;;;;;;;21.21;45.26;99852.95;1902882;73;28186;-62
2021/12/30 07:08:14;;;;;;;2.80;1.50;;;;;;;21.22;45.22;99854.60;1902057;73;28089;-63
2021/12/30 07:11:03;;;;;;;1.40;1.00;;;;;;;21.24;45.17;99860.68;1890009;74;28115;-64
2021/12/30 07:13:52;;;;;;;1.07;1.02;;;;;;;21.23;45.07;99865.33;1911605;73;28083;-64
2021/12/30 07:16:40;;;;;;;1.00;1.00;;;;;;;21.25;45.00;99862.38;1908568;74;28112;-63
2021/12/30 07:19:29;;;;;;;1.00;1.00;;;;;;;21.26;44.92;99866.25;1905402;73;28091;-63
2021/12/30 07:22:17;;;;;;;1.30;1.00;;;;;;;21.26;44.82;99859.41;1889384;75;28147;-64
2021/12/30 07:25:07;;;;;;;1.02;1.02;;;;;;;21.30;44.76;99862.56;1901689;73;28535;-65
2021/12/30 07:27:55;;;;;;;1.30;0.98;;;;;;;21.28;44.72;99866.05;1908019;73;28067;-62
2021/12/30 07:30:44;;;;;;;0.80;0.80;;;;;;;21.30;44.65;99862.56;1912899;73;28093;-63
2021/12/30 07:33:32;;;;;;;1.05;1.00;;;;;;;21.30;44.68;99866.14;1917599;73;28505;-63
2021/12/30 07:36:21;;;;;;;0.82;0.82;;;;;;;21.30;44.61;99870.24;1901443;73;28131;-63
2021/12/30 07:39:09;;;;;;;0.88;0.80;;;;;;;21.31;44.59;99877.37;1901226;75;28049;-64
2021/12/30 07:41:57;;;;;;;0.90;0.90;;;;;;;21.32;44.58;99874.11;1890989;74;28096;-63
2021/12/30 07:44:47;;;;;;;0.80;0.80;;;;;;;21.30;44.57;99874.34;1926618;73;27993;-63
2021/12/30 07:47:35;;;;;;;0.90;0.90;;;;;;;21.30;44.60;99874.86;1900105;74;28643;-63
2021/12/30 07:50:25;;;;;;;1.80;1.00;;;;;;;21.32;44.57;99883.16;1900941;73;28042;-63
2021/12/30 07:53:13;;;;;;;1.25;1.00;;;;;;;21.34;44.61;99877.47;1915466;73;28104;-63
2021/12/30 07:56:02;;;;;;;0.90;0.90;;;;;;;21.30;44.62;99879.80;1905736;73;28144;-63
2021/12/30 07:58:51;;;;;;;1.52;0.82;;;;;;;21.34;44.64;99880.20;1905942;73;28159;-63
2021/12/30 08:01:39;;;;;;;0.90;0.90;;;;;;;21.35;44.62;99889.53;1898506;74;28234;-65
2021/12/30 08:04:28;;;;;;;0.93;0.93;;;;;;;21.35;44.66;99888.72;1914170;73;28235;-64
2021/12/30 08:07:21;;;;;;;1.67;0.88;;;;;;;21.34;44.61;99885.66;1913938;73;28013;-65
2021/12/30 08:10:13;;;;;;;0.90;0.90;;;;;;;21.33;44.65;99887.55;1890524;75;28095;-65
2021/12/30 08:13:01;;;;;;;0.90;0.90;;;;;;;21.33;44.68;99890.83;1885953;75;28105;-65
2021/12/30 08:15:50;;;;;;;1.07;1.07;;;;;;;21.35;44.67;99888.16;1894240;75;28185;-64
2021/12/30 08:18:40;;;;;;;0.98;0.98;;;;;;;21.34;44.63;99889.23;1896409;75;28257;-65
2021/12/30 08:21:28;;;;;;;0.90;0.90;;;;;;;21.33;44.67;99893.56;1892908;74;28108;-65
2021/12/30 08:24:19;;;;;;;0.90;0.90;;;;;;;21.33;44.61;99898.48;1870963;75;28091;-64
2021/12/30 08:27:10;;;;;;;1.50;0.98;;;;;;;21.32;44.67;99891.35;1882074;74;28180;-64
2021/12/30 08:29:57;;;;;;;0.90;0.90;;;;;;;21.34;44.73;99900.69;1875549;75;28142;-63
2021/12/30 08:32:47;;;;;;;1.20;0.93;;;;;;;21.32;44.83;99908.27;1881343;75;28164;-64
2021/12/30 08:35:37;;;;;;;0.90;0.90;;;;;;;21.32;44.90;99918.68;1886565;74;28293;-64
2021/12/30 08:38:25;;;;;;;1.20;1.00;;;;;;;21.31;44.97;99916.14;1888988;74;28113;-63
2021/12/30 08:41:15;;;;;;;1.62;1.05;;;;;;;21.34;45.06;99922.55;1873024;75;28178;-64
2021/12/30 08:44:04;;;;;;;1.95;0.90;;;;;;;21.31;45.14;99921.09;1882451;75;28426;-65
2021/12/30 08:46:52;;;;;;;1.20;0.98;;;;;;;21.34;45.15;99915.72;1888735;75;28116;-64
2021/12/30 08:49:45;;;;;;;1.40;1.30;;;;;;;21.33;45.19;99922.26;1885832;75;28279;-63
2021/12/30 08:52:33;;;;;;;1.42;0.95;;;;;;;21.32;45.25;99920.56;1898433;75;28184;-63
2021/12/30 08:55:40;;;;;;;1.10;0.90;;;;;;;21.31;45.26;99927.07;1893841;75;28186;-63
2021/12/30 08:58:29;;;;;;;1.62;1.00;;;;;;;21.33;45.31;99927.17;1881177;74;28137;-63
2021/12/30 09:01:18;;;;;;;1.70;1.10;;;;;;;21.30;45.31;99925.41;1891235;75;28081;-66
2021/12/30 09:04:07;;;;;;;1.50;1.40;;;;;;;21.31;45.41;99933.38;1882692;75;28522;-65
2021/12/30 09:06:56;;;;;;;1.45;1.35;;;;;;;21.32;45.46;99933.70;1895953;75;28111;-65
2021/12/30 09:09:44;;;;;;;1.60;1.42;;;;;;;21.33;45.42;99934.55;1890301;75;28133;-65
2021/12/30 09:12:33;;;;;;;3.02;1.40;;;;;;;21.33;45.45;99934.00;1902334;73;28067;-63
2021/12/30 09:15:24;;;;;;;2.12;1.37;;;;;;;21.34;45.44;99942.52;1889177;74;28215;-63
2021/12/30 09:18:13;;;;;;;2.80;1.50;;;;;;;21.31;45.53;99948.41;1900784;73;28071;-63
2021/12/30 09:21:02;;;;;;;4.28;1.40;;;;;;;21.34;45.52;99951.24;1888650;75;28108;-63
2021/12/30 09:23:51;;;;;;;2.80;1.60;;;;;;;21.37;45.50;99948.61;1901251;75;28113;-63
2021/12/30 09:26:41;;;;;;;1.90;1.40;;;;;;;21.38;45.43;99947.02;1889458;73;28066;-64
2021/12/30 09:29:29;;;;;;;3.17;1.50;;;;;;;21.38;45.45;99952.48;1901437;75;28134;-63
2021/12/30 09:32:18;;;;;;;1.60;1.30;;;;;;;21.35;45.45;99948.84;1901949;73;28247;-63
2021/12/30 09:35:07;;;;;;;1.50;1.30;;;;;;;21.35;45.48;99949.65;1905723;73;28125;-63
2021/12/30 09:37:56;;;;;;;2.45;1.42;;;;;;;21.37;45.44;99956.28;1898629;73;29108;-63
2021/12/30 09:40:44;;;;;;;2.85;1.40;;;;;;;21.34;45.41;99960.80;1905181;74;28038;-64
2021/12/30 09:43:34;;;;;;;2.72;1.30;;;;;;;21.36;45.46;99965.52;1912186;73;28169;-64
2021/12/30 09:46:24;;;;;;;3.37;1.40;;;;;;;21.35;45.42;99967.97;1891008;74;28184;-63
2021/12/30 09:49:18;;;;;;;1.77;1.50;;;;;;;21.38;45.38;99972.16;1889153;74;28044;-64
2021/12/30 09:52:07;;;;;;;1.80;1.50;;;;;;;21.37;45.38;99975.94;1901475;75;28143;-63
2021/12/30 09:54:56;;;;;;;1.40;1.30;;;;;;;21.35;45.32;99979.70;1901048;75;28126;-63
2021/12/30 09:57:45;;;;;;;1.67;1.30;;;;;;;21.35;45.42;99982.99;1890233;75;28157;-64
2021/12/30 10:00:34;;;;;;;1.77;1.40;;;;;;;21.34;45.37;99982.67;1923649;73;28023;-64
2021/12/30 10:03:29;;;;;;;1.72;1.40;;;;;;;21.34;45.38;99980.78;1894251;74;28114;-63
2021/12/30 10:06:18;;;;;;;2.62;1.50;;;;;;;21.35;45.37;99982.44;1898002;74;28166;-63
2021/12/30 10:09:10;;;;;;;1.95;1.30;;;;;;;21.34;45.39;99989.50;1901274;75;28100;-63
2021/12/30 10:12:00;;;;;;;1.82;1.37;;;;;;;21.35;45.40;99990.64;1905186;73;28583;-63
2021/12/30 10:14:52;;;;;;;3.72;1.60;;;;;;;21.36;45.50;99999.69;1910141;73;28210;-65
2021/12/30 10:17:42;;;;;;;2.53;1.53;;;;;;;21.32;45.54;100001.17;1911025;73;28265;-66
2021/12/30 10:20:32;;;;;;;7.35;1.77;;;;;;;21.38;45.55;100001.67;1910045;73;28178;-65
2021/12/30 10:23:26;;;;;;;3.10;1.40;;;;;;;21.43;45.51;99999.66;1913837;73;28022;-65
2021/12/30 10:26:15;;;;;;;3.12;1.75;;;;;;;21.45;45.54;99999.77;1902622;73;28653;-64
2021/12/30 10:29:05;;;;;;;1.60;1.47;;;;;;;21.44;45.58;99998.63;1919181;73;28068;-65
2021/12/30 10:31:54;;;;;;;2.02;1.42;;;;;;;21.41;45.57;99998.52;1900923;73;28198;-66
2021/12/30 10:35:03;;;;;;;3.62;1.90;;;;;;;21.45;45.59;99996.22;1913841;73;28159;-66
2021/12/30 10:37:54;;;;;;;3.35;1.75;;;;;;;21.46;45.66;100006.92;1931714;73;28117;-65
2021/12/30 10:40:50;;;;;;;3.12;1.80;;;;;;;21.47;45.63;100004.48;1915138;73;28137;-63
2021/12/30 10:46:33;;;;;;;3.27;1.35;;;;;;;21.48;45.69;100006.69;1923929;73;28638;-64
2021/12/30 10:49:28;;;;;;;1.82;1.50;;;;;;;21.49;45.68;100009.75;1901063;75;28250;-64
2021/12/30 10:52:37;;;;;;;5.50;1.40;;;;;;;21.46;45.65;100009.66;1913854;73;28180;-64
2021/12/30 10:55:26;;;;;;;4.10;1.60;;;;;;;21.46;45.74;100006.08;1913009;73;28122;-65
2021/12/30 10:58:27;;;;;;;3.77;1.50;;;;;;;21.48;45.79;100010.80;1904517;73;28207;-65
2021/12/30 11:01:19;;;;;;;2.80;1.67;;;;;;;21.49;45.80;100012.48;1904048;73;28132;-65
2021/12/30 11:04:09;;;;;;;2.70;1.42;;;;;;;21.45;45.98;100006.59;1914110;73;28202;-65
2021/12/30 11:06:58;;;;;;;7.87;1.45;;;;;;;21.47;46.15;100004.48;1910309;74;28087;-65
2021/12/30 11:09:54;;;;;;;2.35;1.45;;;;;;;21.50;46.18;100006.80;1922668;73;28157;-64
2021/12/30 11:12:45;;;;;;;4.72;1.50;;;;;;;21.52;46.31;100003.31;1906013;73;28182;-64
2021/12/30 11:15:34;;;;;;;3.60;1.50;;;;;;;21.52;46.41;100000.58;1924444;73;28148;-64
2021/12/30 11:18:24;;;;;;;3.33;1.40;;;;;;;21.55;46.39;99999.31;1901491;75;30065;-66
2021/12/30 11:21:14;;;;;;;2.33;1.50;;;;;;;21.57;46.39;100002.66;1906343;74;28119;-65
2021/12/30 11:24:04;;;;;;;5.72;1.50;;;;;;;21.56;46.42;100002.38;1905805;73;28215;-66
2021/12/30 11:26:52;;;;;;;3.52;1.70;;;;;;;21.56;46.38;99999.12;1931598;73;28169;-65
2021/12/30 11:29:45;;;;;;;3.80;1.62;;;;;;;21.59;46.41;100006.02;1901034;75;28169;-65
